sensor_id;sensor_type;location;lat;lon;timestamp;temperature;humidity
3912;DHT22;1971;51.778;10.330;2023-01-08T00:02:06;6.50;99.90
3912;DHT22;1971;51.778;10.330;2023-01-08T00:04:36;6.50;99.90
3912;DHT22;1971;51.778;10.330;2023-01-08T00:07:08;6.40;99.90
3912;DHT22;1971;51.778;10.330;2023-01-08T00:09:39;6.70;99.90
3912;DHT22;1971;51.778;10.330;2023-01-08T00:12:09;6.50;99.90
3912;DHT22;1971;51.778;10.330;2023-01-08T00:14:40;6.50;99.90
3912;DHT22;1971;51.778;10.330;2023-01-08T00:17:13;6.60;99.90
3912;DHT22;1971;51.778;10.330;2023-01-08T00:19:44;6.50;99.90
3912;DHT22;1971;51.778;10.330;2023-01-08T00:22:14;6.40;99.90
3912;DHT22;1971;51.778;10.330;2023-01-08T00:24:44;6.60;99.90
3912;DHT22;1971;51.778;10.330;2023-01-08T00:27:15;6.60;99.90
3912;DHT22;1971;51.778;10.330;2023-01-08T00:29:46;6.60;99.90
3912;DHT22;1971;51.778;10.330;2023-01-08T00:32:18;6.50;99.90
3912;DHT22;1971;51.778;10.330;2023-01-08T00:34:49;6.50;99.90
3912;DHT22;1971;51.778;10.330;2023-01-08T00:37:20;6.50;99.90
3912;DHT22;1971;51.778;10.330;2023-01-08T00:39:51;6.40;99.90
3912;DHT22;1971;51.778;10.330;2023-01-08T00:42:20;6.40;99.90
3912;DHT22;1971;51.778;10.330;2023-01-08T00:44:51;6.40;99.90
3912;DHT22;1971;51.778;10.330;2023-01-08T00:47:23;6.40;99.90
3912;DHT22;1971;51.778;10.330;2023-01-08T00:49:53;6.80;99.90
3912;DHT22;1971;51.778;10.330;2023-01-08T00:52:23;6.70;99.90
3912;DHT22;1971;51.778;10.330;2023-01-08T00:54:54;6.50;99.90
3912;DHT22;1971;51.778;10.330;2023-01-08T00:57:24;6.50;99.90
3912;DHT22;1971;51.778;10.330;2023-01-08T00:59:54;6.60;99.90
3912;DHT22;1971;51.778;10.330;2023-01-08T01:02:30;6.50;99.90
3912;DHT22;1971;51.778;10.330;2023-01-08T01:05:07;6.60;99.90
3912;DHT22;1971;51.778;10.330;2023-01-08T01:07:39;6.50;99.90
3912;DHT22;1971;51.778;10.330;2023-01-08T01:10:16;6.50;99.90
3912;DHT22;1971;51.778;10.330;2023-01-08T01:12:47;6.40;99.90
3912;DHT22;1971;51.778;10.330;2023-01-08T01:15:18;6.50;99.90
3912;DHT22;1971;51.778;10.330;2023-01-08T01:17:51;6.60;99.90
3912;DHT22;1971;51.778;10.330;2023-01-08T01:20:22;6.60;99.90
3912;DHT22;1971;51.778;10.330;2023-01-08T01:22:52;6.60;99.90
3912;DHT22;1971;51.778;10.330;2023-01-08T01:25:23;6.60;99.90
3912;DHT22;1971;51.778;10.330;2023-01-08T01:27:53;6.60;99.90
3912;DHT22;1971;51.778;10.330;2023-01-08T01:30:24;6.60;99.90
3912;DHT22;1971;51.778;10.330;2023-01-08T01:32:57;6.60;99.90
3912;DHT22;1971;51.778;10.330;2023-01-08T01:35:27;6.60;99.90
3912;DHT22;1971;51.778;10.330;2023-01-08T01:38:06;6.70;99.90
3912;DHT22;1971;51.778;10.330;2023-01-08T01:40:40;6.60;99.90
3912;DHT22;1971;51.778;10.330;2023-01-08T01:43:12;6.60;99.90
3912;DHT22;1971;51.778;10.330;2023-01-08T01:45:42;6.60;99.90
3912;DHT22;1971;51.778;10.330;2023-01-08T01:48:15;6.60;99.90
3912;DHT22;1971;51.778;10.330;2023-01-08T01:50:47;6.60;99.90
3912;DHT22;1971;51.778;10.330;2023-01-08T01:53:23;6.50;99.90
3912;DHT22;1971;51.778;10.330;2023-01-08T01:55:57;6.60;99.90
3912;DHT22;1971;51.778;10.330;2023-01-08T01:58:31;6.70;99.90
3912;DHT22;1971;51.778;10.330;2023-01-08T02:01:09;6.60;99.90
3912;DHT22;1971;51.778;10.330;2023-01-08T02:03:42;6.60;99.90
3912;DHT22;1971;51.778;10.330;2023-01-08T02:06:23;6.60;99.90
3912;DHT22;1971;51.778;10.330;2023-01-08T02:09:01;6.60;99.90
3912;DHT22;1971;51.778;10.330;2023-01-08T02:11:40;6.60;99.90
3912;DHT22;1971;51.778;10.330;2023-01-08T02:14:16;6.60;99.90
3912;DHT22;1971;51.778;10.330;2023-01-08T02:16:51;6.80;99.90
3912;DHT22;1971;51.778;10.330;2023-01-08T02:19:35;6.60;99.90
3912;DHT22;1971;51.778;10.330;2023-01-08T02:22:14;6.60;99.90
3912;DHT22;1971;51.778;10.330;2023-01-08T02:24:53;6.60;99.90
3912;DHT22;1971;51.778;10.330;2023-01-08T02:27:29;6.70;99.90
3912;DHT22;1971;51.778;10.330;2023-01-08T02:30:02;6.60;99.90
3912;DHT22;1971;51.778;10.330;2023-01-08T02:32:38;6.60;99.90
3912;DHT22;1971;51.778;10.330;2023-01-08T02:35:10;6.60;99.90
3912;DHT22;1971;51.778;10.330;2023-01-08T02:37:40;6.60;99.90
3912;DHT22;1971;51.778;10.330;2023-01-08T02:40:20;6.60;99.90
3912;DHT22;1971;51.778;10.330;2023-01-08T02:43:00;6.60;99.90
3912;DHT22;1971;51.778;10.330;2023-01-08T02:45:37;6.50;99.90
3912;DHT22;1971;51.778;10.330;2023-01-08T02:48:11;6.60;99.90
3912;DHT22;1971;51.778;10.330;2023-01-08T02:50:47;6.80;99.90
3912;DHT22;1971;51.778;10.330;2023-01-08T02:53:21;6.60;99.90
3912;DHT22;1971;51.778;10.330;2023-01-08T02:55:56;6.60;99.90
3912;DHT22;1971;51.778;10.330;2023-01-08T02:58:37;6.60;99.90
3912;DHT22;1971;51.778;10.330;2023-01-08T03:01:09;6.40;99.90
3912;DHT22;1971;51.778;10.330;2023-01-08T03:03:48;6.50;99.90
3912;DHT22;1971;51.778;10.330;2023-01-08T03:06:27;6.90;99.90
3912;DHT22;1971;51.778;10.330;2023-01-08T03:08:59;6.60;99.90
3912;DHT22;1971;51.778;10.330;2023-01-08T03:11:33;6.70;99.90
3912;DHT22;1971;51.778;10.330;2023-01-08T03:14:11;6.50;99.90
3912;DHT22;1971;51.778;10.330;2023-01-08T03:16:47;6.60;99.90
3912;DHT22;1971;51.778;10.330;2023-01-08T03:19:21;6.40;99.90
3912;DHT22;1971;51.778;10.330;2023-01-08T03:21:53;6.40;99.90
3912;DHT22;1971;51.778;10.330;2023-01-08T03:24:28;6.70;99.90
3912;DHT22;1971;51.778;10.330;2023-01-08T03:27:03;6.50;99.90
3912;DHT22;1971;51.778;10.330;2023-01-08T03:29:38;6.50;99.90
3912;DHT22;1971;51.778;10.330;2023-01-08T03:32:14;6.70;99.90
3912;DHT22;1971;51.778;10.330;2023-01-08T03:34:47;6.50;99.90
3912;DHT22;1971;51.778;10.330;2023-01-08T03:37:23;6.50;99.90
3912;DHT22;1971;51.778;10.330;2023-01-08T03:39:57;6.80;99.90
3912;DHT22;1971;51.778;10.330;2023-01-08T03:42:31;6.60;99.90
3912;DHT22;1971;51.778;10.330;2023-01-08T03:45:06;6.50;99.90
3912;DHT22;1971;51.778;10.330;2023-01-08T03:47:37;6.50;99.90
3912;DHT22;1971;51.778;10.330;2023-01-08T03:50:13;6.60;99.90
3912;DHT22;1971;51.778;10.330;2023-01-08T03:52:43;6.70;99.90
3912;DHT22;1971;51.778;10.330;2023-01-08T03:55:14;7.00;99.90
3912;DHT22;1971;51.778;10.330;2023-01-08T03:57:44;6.40;99.90
3912;DHT22;1971;51.778;10.330;2023-01-08T04:00:17;6.60;99.90
3912;DHT22;1971;51.778;10.330;2023-01-08T04:02:48;6.60;99.90
3912;DHT22;1971;51.778;10.330;2023-01-08T04:05:18;6.60;99.90
3912;DHT22;1971;51.778;10.330;2023-01-08T04:07:47;6.60;99.90
3912;DHT22;1971;51.778;10.330;2023-01-08T04:10:18;6.40;99.90
3912;DHT22;1971;51.778;10.330;2023-01-08T04:12:48;6.40;99.90
3912;DHT22;1971;51.778;10.330;2023-01-08T04:15:21;6.50;99.90
3912;DHT22;1971;51.778;10.330;2023-01-08T04:17:52;6.50;99.90
3912;DHT22;1971;51.778;10.330;2023-01-08T04:20:22;6.50;99.90
3912;DHT22;1971;51.778;10.330;2023-01-08T04:22:53;6.50;99.90
3912;DHT22;1971;51.778;10.330;2023-01-08T04:25:24;6.50;99.90
3912;DHT22;1971;51.778;10.330;2023-01-08T04:27:56;6.50;99.90
3912;DHT22;1971;51.778;10.330;2023-01-08T04:30:32;6.50;99.90
3912;DHT22;1971;51.778;10.330;2023-01-08T04:33:05;7.00;99.90
3912;DHT22;1971;51.778;10.330;2023-01-08T04:35:35;6.40;99.90
3912;DHT22;1971;51.778;10.330;2023-01-08T04:38:05;6.50;99.90
3912;DHT22;1971;51.778;10.330;2023-01-08T04:40:37;6.50;99.90
3912;DHT22;1971;51.778;10.330;2023-01-08T04:43:10;6.90;99.90
3912;DHT22;1971;51.778;10.330;2023-01-08T04:45:46;6.50;99.90
3912;DHT22;1971;51.778;10.330;2023-01-08T04:48:17;6.70;99.90
3912;DHT22;1971;51.778;10.330;2023-01-08T04:50:52;6.60;99.90
3912;DHT22;1971;51.778;10.330;2023-01-08T04:53:22;6.50;99.90
3912;DHT22;1971;51.778;10.330;2023-01-08T04:56:02;6.60;99.90
3912;DHT22;1971;51.778;10.330;2023-01-08T04:58:35;6.50;99.90
3912;DHT22;1971;51.778;10.330;2023-01-08T05:01:15;6.30;99.90
3912;DHT22;1971;51.778;10.330;2023-01-08T05:03:53;6.40;99.90
3912;DHT22;1971;51.778;10.330;2023-01-08T05:06:25;6.40;99.90
3912;DHT22;1971;51.778;10.330;2023-01-08T05:08:56;6.50;99.90
3912;DHT22;1971;51.778;10.330;2023-01-08T05:11:28;6.50;99.90
3912;DHT22;1971;51.778;10.330;2023-01-08T05:13:58;6.50;99.90
3912;DHT22;1971;51.778;10.330;2023-01-08T05:16:31;6.50;99.90
3912;DHT22;1971;51.778;10.330;2023-01-08T05:19:01;6.50;99.90
3912;DHT22;1971;51.778;10.330;2023-01-08T05:21:31;6.70;99.90
3912;DHT22;1971;51.778;10.330;2023-01-08T05:24:08;6.50;99.90
3912;DHT22;1971;51.778;10.330;2023-01-08T05:26:38;6.50;99.90
3912;DHT22;1971;51.778;10.330;2023-01-08T05:29:09;6.40;99.90
3912;DHT22;1971;51.778;10.330;2023-01-08T05:31:42;6.40;99.90
3912;DHT22;1971;51.778;10.330;2023-01-08T05:34:13;6.60;99.90
3912;DHT22;1971;51.778;10.330;2023-01-08T05:36:44;6.60;99.90
3912;DHT22;1971;51.778;10.330;2023-01-08T05:39:15;6.60;99.90
3912;DHT22;1971;51.778;10.330;2023-01-08T05:41:45;6.60;99.90
3912;DHT22;1971;51.778;10.330;2023-01-08T05:44:18;6.50;99.90
3912;DHT22;1971;51.778;10.330;2023-01-08T05:46:54;6.60;99.90
3912;DHT22;1971;51.778;10.330;2023-01-08T05:49:25;6.60;99.90
3912;DHT22;1971;51.778;10.330;2023-01-08T05:51:55;6.70;99.90
3912;DHT22;1971;51.778;10.330;2023-01-08T05:54:28;6.70;99.90
3912;DHT22;1971;51.778;10.330;2023-01-08T05:56:59;6.60;99.90
3912;DHT22;1971;51.778;10.330;2023-01-08T05:59:30;6.60;99.90
3912;DHT22;1971;51.778;10.330;2023-01-08T06:02:03;6.60;99.90
3912;DHT22;1971;51.778;10.330;2023-01-08T06:04:33;6.60;99.90
3912;DHT22;1971;51.778;10.330;2023-01-08T06:07:04;6.60;99.90
3912;DHT22;1971;51.778;10.330;2023-01-08T06:09:34;6.60;99.90
3912;DHT22;1971;51.778;10.330;2023-01-08T06:12:04;6.60;99.90
3912;DHT22;1971;51.778;10.330;2023-01-08T06:14:34;6.90;99.90
3912;DHT22;1971;51.778;10.330;2023-01-08T06:17:08;6.70;99.90
3912;DHT22;1971;51.778;10.330;2023-01-08T06:19:42;6.60;99.90
3912;DHT22;1971;51.778;10.330;2023-01-08T06:22:13;6.90;99.90
3912;DHT22;1971;51.778;10.330;2023-01-08T06:24:46;6.50;99.90
3912;DHT22;1971;51.778;10.330;2023-01-08T06:27:17;6.40;99.90
3912;DHT22;1971;51.778;10.330;2023-01-08T06:29:47;6.50;99.90
3912;DHT22;1971;51.778;10.330;2023-01-08T06:32:19;6.40;99.90
3912;DHT22;1971;51.778;10.330;2023-01-08T06:34:49;6.60;99.90
3912;DHT22;1971;51.778;10.330;2023-01-08T06:37:19;6.60;99.90
3912;DHT22;1971;51.778;10.330;2023-01-08T06:39:49;6.40;99.90
3912;DHT22;1971;51.778;10.330;2023-01-08T06:42:19;6.40;99.90
3912;DHT22;1971;51.778;10.330;2023-01-08T06:44:50;6.50;99.90
3912;DHT22;1971;51.778;10.330;2023-01-08T06:47:23;6.50;99.90
3912;DHT22;1971;51.778;10.330;2023-01-08T06:49:53;6.30;99.90
3912;DHT22;1971;51.778;10.330;2023-01-08T06:52:31;6.40;99.90
3912;DHT22;1971;51.778;10.330;2023-01-08T06:55:08;6.40;99.90
3912;DHT22;1971;51.778;10.330;2023-01-08T06:57:40;6.70;99.90
3912;DHT22;1971;51.778;10.330;2023-01-08T07:00:11;6.40;99.90
3912;DHT22;1971;51.778;10.330;2023-01-08T07:02:46;6.40;99.90
3912;DHT22;1971;51.778;10.330;2023-01-08T07:05:16;6.40;99.90
3912;DHT22;1971;51.778;10.330;2023-01-08T07:07:46;6.30;99.90
3912;DHT22;1971;51.778;10.330;2023-01-08T07:10:17;6.40;99.90
3912;DHT22;1971;51.778;10.330;2023-01-08T07:12:48;6.30;99.90
3912;DHT22;1971;51.778;10.330;2023-01-08T07:15:18;6.40;99.90
3912;DHT22;1971;51.778;10.330;2023-01-08T07:17:50;6.50;99.90
3912;DHT22;1971;51.778;10.330;2023-01-08T07:20:21;6.30;99.90
3912;DHT22;1971;51.778;10.330;2023-01-08T07:22:51;6.30;99.90
3912;DHT22;1971;51.778;10.330;2023-01-08T07:25:21;6.30;99.90
3912;DHT22;1971;51.778;10.330;2023-01-08T07:27:51;6.30;99.90
3912;DHT22;1971;51.778;10.330;2023-01-08T07:30:22;6.50;99.90
3912;DHT22;1971;51.778;10.330;2023-01-08T07:33:00;6.20;99.90
3912;DHT22;1971;51.778;10.330;2023-01-08T07:35:30;6.20;99.90
3912;DHT22;1971;51.778;10.330;2023-01-08T07:38:01;6.20;99.90
3912;DHT22;1971;51.778;10.330;2023-01-08T07:40:31;6.20;99.90
3912;DHT22;1971;51.778;10.330;2023-01-08T07:43:03;6.20;99.90
3912;DHT22;1971;51.778;10.330;2023-01-08T07:45:33;6.20;99.90
3912;DHT22;1971;51.778;10.330;2023-01-08T07:48:06;6.20;99.90
3912;DHT22;1971;51.778;10.330;2023-01-08T07:50:42;6.00;99.90
3912;DHT22;1971;51.778;10.330;2023-01-08T07:53:13;6.40;99.90
3912;DHT22;1971;51.778;10.330;2023-01-08T07:55:58;6.10;99.90
3912;DHT22;1971;51.778;10.330;2023-01-08T07:58:31;6.10;99.90
3912;DHT22;1971;51.778;10.330;2023-01-08T08:01:08;6.10;99.90
3912;DHT22;1971;51.778;10.330;2023-01-08T08:03:41;6.20;99.90
3912;DHT22;1971;51.778;10.330;2023-01-08T08:06:18;6.00;99.90
3912;DHT22;1971;51.778;10.330;2023-01-08T08:08:48;6.10;99.90
3912;DHT22;1971;51.778;10.330;2023-01-08T08:11:19;6.00;99.90
3912;DHT22;1971;51.778;10.330;2023-01-08T08:13:52;6.00;99.90
3912;DHT22;1971;51.778;10.330;2023-01-08T08:16:29;6.00;99.90
3912;DHT22;1971;51.778;10.330;2023-01-08T08:19:02;6.10;99.90
3912;DHT22;1971;51.778;10.330;2023-01-08T08:21:32;6.00;99.90
3912;DHT22;1971;51.778;10.330;2023-01-08T08:24:03;6.00;99.90
3912;DHT22;1971;51.778;10.330;2023-01-08T08:26:34;6.00;99.90
3912;DHT22;1971;51.778;10.330;2023-01-08T08:29:04;6.00;99.90
3912;DHT22;1971;51.778;10.330;2023-01-08T08:31:34;6.30;99.90
3912;DHT22;1971;51.778;10.330;2023-01-08T08:34:07;5.90;99.90
3912;DHT22;1971;51.778;10.330;2023-01-08T08:36:37;6.30;99.90
3912;DHT22;1971;51.778;10.330;2023-01-08T08:39:06;5.90;99.90
3912;DHT22;1971;51.778;10.330;2023-01-08T08:41:37;5.80;99.90
3912;DHT22;1971;51.778;10.330;2023-01-08T08:44:08;5.70;99.90
3912;DHT22;1971;51.778;10.330;2023-01-08T08:46:38;5.90;99.90
3912;DHT22;1971;51.778;10.330;2023-01-08T08:49:11;5.90;99.90
3912;DHT22;1971;51.778;10.330;2023-01-08T08:51:41;5.90;99.90
3912;DHT22;1971;51.778;10.330;2023-01-08T08:54:11;5.90;99.90
3912;DHT22;1971;51.778;10.330;2023-01-08T08:56:41;5.90;99.90
3912;DHT22;1971;51.778;10.330;2023-01-08T08:59:12;6.20;99.90
3912;DHT22;1971;51.778;10.330;2023-01-08T09:01:42;5.70;99.90
3912;DHT22;1971;51.778;10.330;2023-01-08T09:04:15;6.20;99.90
3912;DHT22;1971;51.778;10.330;2023-01-08T09:06:45;5.90;99.90
3912;DHT22;1971;51.778;10.330;2023-01-08T09:09:15;6.10;99.90
3912;DHT22;1971;51.778;10.330;2023-01-08T09:11:46;6.00;99.90
3912;DHT22;1971;51.778;10.330;2023-01-08T09:14:16;6.00;99.90
3912;DHT22;1971;51.778;10.330;2023-01-08T09:16:47;6.30;99.90
3912;DHT22;1971;51.778;10.330;2023-01-08T09:19:20;6.00;99.90
3912;DHT22;1971;51.778;10.330;2023-01-08T09:21:50;6.20;99.90
3912;DHT22;1971;51.778;10.330;2023-01-08T09:24:20;5.80;99.90
3912;DHT22;1971;51.778;10.330;2023-01-08T09:26:52;6.00;99.90
3912;DHT22;1971;51.778;10.330;2023-01-08T09:29:22;6.20;99.90
3912;DHT22;1971;51.778;10.330;2023-01-08T09:31:52;5.90;99.90
3912;DHT22;1971;51.778;10.330;2023-01-08T09:34:28;5.90;99.90
3912;DHT22;1971;51.778;10.330;2023-01-08T09:36:58;5.90;99.90
3912;DHT22;1971;51.778;10.330;2023-01-08T09:39:28;6.00;99.90
3912;DHT22;1971;51.778;10.330;2023-01-08T09:42:01;6.00;99.90
3912;DHT22;1971;51.778;10.330;2023-01-08T09:44:36;5.90;99.90
3912;DHT22;1971;51.778;10.330;2023-01-08T09:47:19;6.20;99.90
3912;DHT22;1971;51.778;10.330;2023-01-08T09:49:56;5.80;99.90
3912;DHT22;1971;51.778;10.330;2023-01-08T09:52:27;5.70;99.90
3912;DHT22;1971;51.778;10.330;2023-01-08T09:54:59;5.80;99.90
3912;DHT22;1971;51.778;10.330;2023-01-08T09:57:29;5.90;99.90
3912;DHT22;1971;51.778;10.330;2023-01-08T09:59:58;5.90;99.90
3912;DHT22;1971;51.778;10.330;2023-01-08T10:02:31;6.20;99.90
3912;DHT22;1971;51.778;10.330;2023-01-08T10:05:11;6.00;99.90
3912;DHT22;1971;51.778;10.330;2023-01-08T10:07:41;6.00;99.90
3912;DHT22;1971;51.778;10.330;2023-01-08T10:10:17;6.00;99.90
3912;DHT22;1971;51.778;10.330;2023-01-08T10:12:48;6.00;99.90
3912;DHT22;1971;51.778;10.330;2023-01-08T10:15:20;6.00;99.90
3912;DHT22;1971;51.778;10.330;2023-01-08T10:17:56;6.00;99.90
3912;DHT22;1971;51.778;10.330;2023-01-08T10:20:32;6.10;99.90
3912;DHT22;1971;51.778;10.330;2023-01-08T10:23:11;6.10;99.90
3912;DHT22;1971;51.778;10.330;2023-01-08T10:25:50;6.10;99.90
3912;DHT22;1971;51.778;10.330;2023-01-08T10:28:23;6.10;99.90
3912;DHT22;1971;51.778;10.330;2023-01-08T10:30:58;6.10;99.90
3912;DHT22;1971;51.778;10.330;2023-01-08T10:33:30;6.00;99.90
3912;DHT22;1971;51.778;10.330;2023-01-08T10:36:12;6.00;99.90
3912;DHT22;1971;51.778;10.330;2023-01-08T10:38:49;6.00;99.90
3912;DHT22;1971;51.778;10.330;2023-01-08T10:41:21;6.00;99.90
3912;DHT22;1971;51.778;10.330;2023-01-08T10:43:55;6.40;99.90
3912;DHT22;1971;51.778;10.330;2023-01-08T10:46:27;6.20;99.90
3912;DHT22;1971;51.778;10.330;2023-01-08T10:49:04;6.30;99.90
3912;DHT22;1971;51.778;10.330;2023-01-08T10:51:47;6.10;99.90
3912;DHT22;1971;51.778;10.330;2023-01-08T10:54:31;6.10;99.90
3912;DHT22;1971;51.778;10.330;2023-01-08T10:57:02;6.10;99.90
3912;DHT22;1971;51.778;10.330;2023-01-08T10:59:35;6.10;99.90
3912;DHT22;1971;51.778;10.330;2023-01-08T11:02:27;6.10;99.90
3912;DHT22;1971;51.778;10.330;2023-01-08T11:04:58;6.20;99.90
3912;DHT22;1971;51.778;10.330;2023-01-08T11:07:31;6.60;99.90
3912;DHT22;1971;51.778;10.330;2023-01-08T11:10:04;6.20;99.90
3912;DHT22;1971;51.778;10.330;2023-01-08T11:12:36;6.20;99.90
3912;DHT22;1971;51.778;10.330;2023-01-08T11:15:26;6.30;99.90
3912;DHT22;1971;51.778;10.330;2023-01-08T11:18:04;6.20;99.90
3912;DHT22;1971;51.778;10.330;2023-01-08T11:20:35;6.70;99.90
3912;DHT22;1971;51.778;10.330;2023-01-08T11:23:17;6.60;99.90
3912;DHT22;1971;51.778;10.330;2023-01-08T11:25:53;6.30;99.90
3912;DHT22;1971;51.778;10.330;2023-01-08T11:28:30;6.40;99.90
3912;DHT22;1971;51.778;10.330;2023-01-08T11:31:14;6.30;99.90
3912;DHT22;1971;51.778;10.330;2023-01-08T11:33:47;6.30;99.90
3912;DHT22;1971;51.778;10.330;2023-01-08T11:36:24;6.30;99.90
3912;DHT22;1971;51.778;10.330;2023-01-08T11:38:58;6.30;99.90
3912;DHT22;1971;51.778;10.330;2023-01-08T11:41:42;6.30;99.90
3912;DHT22;1971;51.778;10.330;2023-01-08T11:44:24;6.40;99.90
3912;DHT22;1971;51.778;10.330;2023-01-08T11:47:03;6.40;99.90
3912;DHT22;1971;51.778;10.330;2023-01-08T11:49:56;6.30;99.90
3912;DHT22;1971;51.778;10.330;2023-01-08T11:52:34;6.40;99.90
3912;DHT22;1971;51.778;10.330;2023-01-08T11:55:28;6.30;99.90
3912;DHT22;1971;51.778;10.330;2023-01-08T11:58:17;6.50;99.90
3912;DHT22;1971;51.778;10.330;2023-01-08T12:00:59;6.30;99.90
3912;DHT22;1971;51.778;10.330;2023-01-08T12:03:36;6.60;99.90
3912;DHT22;1971;51.778;10.330;2023-01-08T12:06:27;6.50;99.90
3912;DHT22;1971;51.778;10.330;2023-01-08T12:09:11;6.40;99.90
3912;DHT22;1971;51.778;10.330;2023-01-08T12:11:50;6.60;99.90
3912;DHT22;1971;51.778;10.330;2023-01-08T12:14:35;6.40;99.90
3912;DHT22;1971;51.778;10.330;2023-01-08T12:17:29;6.30;99.90
3912;DHT22;1971;51.778;10.330;2023-01-08T12:20:14;6.40;99.90
3912;DHT22;1971;51.778;10.330;2023-01-08T12:22:56;6.40;99.90
3912;DHT22;1971;51.778;10.330;2023-01-08T12:25:48;6.60;99.90
3912;DHT22;1971;51.778;10.330;2023-01-08T12:28:40;6.40;99.90
3912;DHT22;1971;51.778;10.330;2023-01-08T12:31:26;6.30;99.90
3912;DHT22;1971;51.778;10.330;2023-01-08T12:34:02;6.40;99.90
3912;DHT22;1971;51.778;10.330;2023-01-08T12:36:38;6.40;99.90
3912;DHT22;1971;51.778;10.330;2023-01-08T12:39:12;6.30;99.90
3912;DHT22;1971;51.778;10.330;2023-01-08T12:41:46;6.30;99.90
3912;DHT22;1971;51.778;10.330;2023-01-08T12:44:22;6.50;99.90
3912;DHT22;1971;51.778;10.330;2023-01-08T12:46:55;6.30;99.90
3912;DHT22;1971;51.778;10.330;2023-01-08T12:49:32;6.30;99.90
3912;DHT22;1971;51.778;10.330;2023-01-08T12:52:07;6.30;99.90
3912;DHT22;1971;51.778;10.330;2023-01-08T12:54:46;6.20;99.90
3912;DHT22;1971;51.778;10.330;2023-01-08T12:57:26;6.40;99.90
3912;DHT22;1971;51.778;10.330;2023-01-08T13:00:03;6.30;99.90
3912;DHT22;1971;51.778;10.330;2023-01-08T13:02:43;6.40;99.90
3912;DHT22;1971;51.778;10.330;2023-01-08T13:05:30;6.30;99.90
3912;DHT22;1971;51.778;10.330;2023-01-08T13:08:02;6.60;99.90
3912;DHT22;1971;51.778;10.330;2023-01-08T13:10:35;6.50;99.90
3912;DHT22;1971;51.778;10.330;2023-01-08T13:13:07;6.40;99.90
3912;DHT22;1971;51.778;10.330;2023-01-08T13:16:08;6.40;99.90
3912;DHT22;1971;51.778;10.330;2023-01-08T13:18:51;6.40;99.90
3912;DHT22;1971;51.778;10.330;2023-01-08T13:21:30;6.40;99.90
3912;DHT22;1971;51.778;10.330;2023-01-08T13:24:19;6.40;99.90
3912;DHT22;1971;51.778;10.330;2023-01-08T13:26:52;6.50;99.90
3912;DHT22;1971;51.778;10.330;2023-01-08T13:29:34;6.40;99.90
3912;DHT22;1971;51.778;10.330;2023-01-08T13:32:22;6.40;99.90
3912;DHT22;1971;51.778;10.330;2023-01-08T13:35:25;6.40;99.90
3912;DHT22;1971;51.778;10.330;2023-01-08T13:38:11;6.40;99.90
3912;DHT22;1971;51.778;10.330;2023-01-08T13:40:50;6.40;99.90
3912;DHT22;1971;51.778;10.330;2023-01-08T13:43:27;6.70;99.90
3912;DHT22;1971;51.778;10.330;2023-01-08T13:46:07;6.40;99.90
3912;DHT22;1971;51.778;10.330;2023-01-08T13:48:51;6.40;99.90
3912;DHT22;1971;51.778;10.330;2023-01-08T13:51:41;6.30;99.90
3912;DHT22;1971;51.778;10.330;2023-01-08T13:54:31;6.50;99.90
3912;DHT22;1971;51.778;10.330;2023-01-08T13:57:04;6.30;99.90
3912;DHT22;1971;51.778;10.330;2023-01-08T13:59:38;6.60;99.90
3912;DHT22;1971;51.778;10.330;2023-01-08T14:02:24;6.40;99.90
3912;DHT22;1971;51.778;10.330;2023-01-08T14:04:59;6.30;99.90
3912;DHT22;1971;51.778;10.330;2023-01-08T14:07:30;6.30;99.90
3912;DHT22;1971;51.778;10.330;2023-01-08T14:10:11;6.40;99.90
3912;DHT22;1971;51.778;10.330;2023-01-08T14:12:41;6.40;99.90
3912;DHT22;1971;51.778;10.330;2023-01-08T14:15:22;6.40;99.90
3912;DHT22;1971;51.778;10.330;2023-01-08T14:17:53;6.30;99.90
3912;DHT22;1971;51.778;10.330;2023-01-08T14:20:30;6.60;99.90
3912;DHT22;1971;51.778;10.330;2023-01-08T14:23:02;6.40;99.90
3912;DHT22;1971;51.778;10.330;2023-01-08T14:25:38;6.30;99.90
3912;DHT22;1971;51.778;10.330;2023-01-08T14:28:15;6.70;99.90
3912;DHT22;1971;51.778;10.330;2023-01-08T14:30:47;6.50;99.90
3912;DHT22;1971;51.778;10.330;2023-01-08T14:33:21;6.70;99.90
3912;DHT22;1971;51.778;10.330;2023-01-08T14:35:56;6.60;99.90
3912;DHT22;1971;51.778;10.330;2023-01-08T14:38:34;6.40;99.90
3912;DHT22;1971;51.778;10.330;2023-01-08T14:41:09;6.40;99.90
3912;DHT22;1971;51.778;10.330;2023-01-08T14:43:43;6.60;99.90
3912;DHT22;1971;51.778;10.330;2023-01-08T14:46:19;6.70;99.90
3912;DHT22;1971;51.778;10.330;2023-01-08T14:48:51;6.40;99.90
3912;DHT22;1971;51.778;10.330;2023-01-08T14:51:26;6.40;99.90
3912;DHT22;1971;51.778;10.330;2023-01-08T14:54:00;6.50;99.90
3912;DHT22;1971;51.778;10.330;2023-01-08T14:56:35;6.40;99.90
3912;DHT22;1971;51.778;10.330;2023-01-08T14:59:07;6.30;99.90
3912;DHT22;1971;51.778;10.330;2023-01-08T15:01:39;6.70;99.90
3912;DHT22;1971;51.778;10.330;2023-01-08T15:04:14;6.40;99.90
3912;DHT22;1971;51.778;10.330;2023-01-08T15:06:49;6.40;99.90
3912;DHT22;1971;51.778;10.330;2023-01-08T15:09:22;6.70;99.90
3912;DHT22;1971;51.778;10.330;2023-01-08T15:11:55;6.50;99.90
3912;DHT22;1971;51.778;10.330;2023-01-08T15:14:27;6.40;99.90
3912;DHT22;1971;51.778;10.330;2023-01-08T15:17:07;6.40;99.90
3912;DHT22;1971;51.778;10.330;2023-01-08T15:19:40;6.40;99.90
3912;DHT22;1971;51.778;10.330;2023-01-08T15:22:18;6.30;99.90
3912;DHT22;1971;51.778;10.330;2023-01-08T15:24:55;6.50;99.90
3912;DHT22;1971;51.778;10.330;2023-01-08T15:27:27;6.20;99.90
3912;DHT22;1971;51.778;10.330;2023-01-08T15:29:58;6.20;99.90
3912;DHT22;1971;51.778;10.330;2023-01-08T15:32:31;6.60;99.90
3912;DHT22;1971;51.778;10.330;2023-01-08T15:35:12;6.20;99.90
3912;DHT22;1971;51.778;10.330;2023-01-08T15:37:45;6.20;99.90
3912;DHT22;1971;51.778;10.330;2023-01-08T15:40:16;6.70;99.90
3912;DHT22;1971;51.778;10.330;2023-01-08T15:42:48;6.30;99.90
3912;DHT22;1971;51.778;10.330;2023-01-08T15:45:31;6.20;99.90
3912;DHT22;1971;51.778;10.330;2023-01-08T15:48:01;6.20;99.90
3912;DHT22;1971;51.778;10.330;2023-01-08T15:50:32;6.50;99.90
3912;DHT22;1971;51.778;10.330;2023-01-08T15:53:11;6.10;99.90
3912;DHT22;1971;51.778;10.330;2023-01-08T15:55:42;6.10;99.90
3912;DHT22;1971;51.778;10.330;2023-01-08T15:58:14;6.20;99.90
3912;DHT22;1971;51.778;10.330;2023-01-08T16:00:46;6.20;99.90
3912;DHT22;1971;51.778;10.330;2023-01-08T16:03:16;6.20;99.90
3912;DHT22;1971;51.778;10.330;2023-01-08T16:05:49;6.20;99.90
3912;DHT22;1971;51.778;10.330;2023-01-08T16:08:23;6.20;99.90
3912;DHT22;1971;51.778;10.330;2023-01-08T16:10:54;6.20;99.90
3912;DHT22;1971;51.778;10.330;2023-01-08T16:13:24;6.30;99.90
3912;DHT22;1971;51.778;10.330;2023-01-08T16:15:55;6.20;99.90
3912;DHT22;1971;51.778;10.330;2023-01-08T16:18:27;6.00;99.90
3912;DHT22;1971;51.778;10.330;2023-01-08T16:20:59;6.20;99.90
3912;DHT22;1971;51.778;10.330;2023-01-08T16:23:32;6.40;99.90
3912;DHT22;1971;51.778;10.330;2023-01-08T16:26:07;6.20;99.90
3912;DHT22;1971;51.778;10.330;2023-01-08T16:28:38;6.10;99.90
3912;DHT22;1971;51.778;10.330;2023-01-08T16:31:09;6.20;99.90
3912;DHT22;1971;51.778;10.330;2023-01-08T16:33:39;6.00;99.90
3912;DHT22;1971;51.778;10.330;2023-01-08T16:36:10;6.40;99.90
3912;DHT22;1971;51.778;10.330;2023-01-08T16:38:46;6.10;99.90
3912;DHT22;1971;51.778;10.330;2023-01-08T16:41:17;6.40;99.90
3912;DHT22;1971;51.778;10.330;2023-01-08T16:43:48;6.20;99.90
3912;DHT22;1971;51.778;10.330;2023-01-08T16:46:18;6.20;99.90
3912;DHT22;1971;51.778;10.330;2023-01-08T16:48:48;6.40;99.90